Terminal Aerodrome Forecast
Issued by NWS

Home | Current Version | Previous Version | Text Only | Print | Product List | Glossary On
Versions: 1 2 3 4 5 6 7 8 9 10 11 12 13 14 15 16 17 18 19 20 21 22 23 24 25 26 27 28 29 30 31 32 33 34 35 36 37 38 39
000
FTUS43 KDMX 130940 AAA
TAFOTM
TAF AMD
KOTM 130940Z 1310/1406 VRB04KT 2SM BR SCT002
      TEMPO 1310/1312 1SM BR SCT001
     FM131200 VRB03KT 5SM BR SCT010
     FM131300 29005KT P6SM SCT040
     FM131700 31010G15KT P6SM SCT050
     FM132300 32006KT P6SM SCT080=

USA.gov is the U.S. government's official web portal to all federal, state and local government web resources and services.